createdAt,value
2023-09-08T00:03:22.858Z,100371.69
2023-09-08T00:08:25.192Z,100385.91
2023-09-08T00:13:26.603Z,100380.03
2023-09-08T00:18:28.011Z,100372.50
2023-09-08T00:23:29.396Z,100371.69
2023-09-08T00:28:30.725Z,100372.91
2023-09-08T00:33:32.168Z,100368.69
2023-09-08T00:38:34.003Z,100356.75
2023-09-08T00:43:35.570Z,100369.72
2023-09-08T00:48:38.757Z,100369.91
2023-09-08T00:53:40.118Z,100352.78
2023-09-08T00:58:41.824Z,100355.25
2023-09-08T01:03:44.521Z,100346.66
2023-09-08T01:08:46.375Z,100357.69
2023-09-08T01:13:47.853Z,100357.69
2023-09-08T01:18:50.591Z,100372.88
2023-09-08T01:24:22.574Z,100374.56
2023-09-08T01:29:26.611Z,100385.16
2023-09-08T01:34:28.241Z,100378.47
2023-09-08T01:39:29.670Z,100342.81
2023-09-08T01:44:31.251Z,100365.25
2023-09-08T01:49:32.609Z,100359.13
2023-09-08T01:54:34.004Z,100356.16
2023-09-08T01:59:35.769Z,100345.47
2023-09-08T02:04:37.391Z,100358.00
2023-09-08T02:09:39.041Z,100350.06
2023-09-08T02:14:40.408Z,100351.69
2023-09-08T02:19:41.975Z,100356.88
2023-09-08T02:24:43.384Z,100354.53
2023-09-08T02:29:47.072Z,100353.44
2023-09-08T02:34:49.729Z,100363.84
2023-09-08T02:39:51.113Z,100360.69
2023-09-08T02:44:52.979Z,100352.50
2023-09-08T02:49:54.303Z,100359.97
2023-09-08T02:54:55.717Z,100366.66
2023-09-08T02:59:57.603Z,100365.16
2023-09-08T03:04:59.091Z,100355.94
2023-09-08T03:10:00.705Z,100359.22
2023-09-08T03:15:05.382Z,100355.88
2023-09-08T03:20:08.769Z,100363.34
2023-09-08T03:25:10.306Z,100348.44
2023-09-08T03:30:12.048Z,100356.00
2023-09-08T03:35:13.386Z,100350.34
2023-09-08T03:40:14.950Z,100350.56
2023-09-08T03:45:16.597Z,100332.44
2023-09-08T03:50:18.021Z,100348.75
2023-09-08T03:55:19.909Z,100355.44
2023-09-08T04:00:23.205Z,100352.41
2023-09-08T04:05:24.725Z,100364.09
2023-09-08T04:10:26.529Z,100355.31
2023-09-08T04:15:28.038Z,100373.22
2023-09-08T04:20:29.395Z,100357.47
2023-09-08T04:25:30.698Z,100363.09
2023-09-08T04:30:32.119Z,100371.00
2023-09-08T04:35:33.606Z,100371.13
2023-09-08T04:40:34.955Z,100383.28
2023-09-08T04:45:36.320Z,100385.31
2023-09-08T04:50:37.691Z,100378.25
2023-09-08T04:55:39.012Z,100399.59
2023-09-08T05:00:43.547Z,100401.66
2023-09-08T05:05:46.028Z,100389.28
2023-09-08T05:10:47.477Z,100390.03
2023-09-08T05:15:49.763Z,100397.97
2023-09-08T05:20:51.283Z,100398.97
2023-09-08T05:25:52.601Z,100407.84
2023-09-08T05:30:54.893Z,100407.16
2023-09-08T05:35:56.977Z,100404.22
2023-09-08T05:40:58.453Z,100409.03
2023-09-08T05:45:59.935Z,100402.31
2023-09-08T05:51:03.264Z,100400.84
2023-09-08T05:56:04.866Z,100414.91
2023-09-08T06:01:06.287Z,100404.59
2023-09-08T06:06:07.706Z,100421.53
2023-09-08T06:11:09.128Z,100420.22
2023-09-08T06:16:10.586Z,100385.22
2023-09-08T06:21:12.010Z,100393.75
2023-09-08T06:26:13.395Z,100416.94
2023-09-08T06:31:15.795Z,100410.34
2023-09-08T06:36:17.396Z,100415.97
2023-09-08T06:41:19.024Z,100428.59
2023-09-08T06:46:20.442Z,100419.53
2023-09-08T06:51:21.836Z,100420.28
2023-09-08T06:56:23.537Z,100421.59
2023-09-08T07:01:25.807Z,100426.00
2023-09-08T07:06:27.221Z,100421.88
2023-09-08T07:11:28.748Z,100408.03
2023-09-08T07:16:39.654Z,100421.16
2023-09-08T07:21:41.490Z,100422.06
2023-09-08T07:26:43.902Z,100409.59
2023-09-08T07:31:45.700Z,100416.16
2023-09-08T07:36:47.135Z,100415.41
2023-09-08T07:41:48.555Z,100405.81
2023-09-08T07:46:52.399Z,100407.56
2023-09-08T07:51:54.381Z,100408.22
2023-09-08T07:56:55.850Z,100410.75
2023-09-08T08:01:57.273Z,100420.38
2023-09-08T08:06:59.021Z,100398.66
2023-09-08T08:12:00.865Z,100419.31
2023-09-08T08:17:02.419Z,100424.56
2023-09-08T08:22:04.654Z,100419.72
2023-09-08T08:27:06.118Z,100423.66
2023-09-08T08:32:08.621Z,100423.22
2023-09-08T08:37:12.545Z,100420.25
2023-09-08T08:42:16.056Z,100410.97
2023-09-08T08:47:20.435Z,100416.34
2023-09-08T08:52:22.601Z,100409.50
2023-09-08T08:57:24.458Z,100415.28
2023-09-08T09:02:26.907Z,100391.97
2023-09-08T09:07:28.703Z,100402.25
2023-09-08T09:12:30.674Z,100398.91
2023-09-08T09:17:36.363Z,100411.63
2023-09-08T09:22:38.494Z,100404.34
2023-09-08T09:27:42.160Z,100394.47
2023-09-08T09:32:44.267Z,100399.69
2023-09-08T09:37:48.725Z,100387.16
2023-09-08T09:42:52.430Z,100388.31
2023-09-08T09:47:53.946Z,100391.78
2023-09-08T09:52:59.690Z,100390.06
2023-09-08T09:58:05.349Z,100378.44
2023-09-08T10:03:07.467Z,100380.63
2023-09-08T10:08:09.382Z,100386.09
2023-09-08T10:13:13.906Z,100384.19
2023-09-08T10:18:20.661Z,100389.03
2023-09-08T10:23:37.516Z,100375.78
2023-09-08T10:28:40.750Z,100371.31
2023-09-08T10:33:44.352Z,100367.00
2023-09-08T10:38:48.732Z,100359.28
2023-09-08T10:43:58.389Z,100356.66
2023-09-08T10:49:09.011Z,100360.19
2023-09-08T10:54:11.291Z,100357.91
2023-09-08T10:59:13.132Z,100341.41
2023-09-08T11:04:20.195Z,100348.97
2023-09-08T11:09:22.413Z,100351.72
2023-09-08T11:14:24.409Z,100342.16
2023-09-08T11:19:25.871Z,100335.16
2023-09-08T11:24:27.823Z,100337.56
2023-09-08T11:29:30.186Z,100327.28
2023-09-08T11:34:31.537Z,100323.00
2023-09-08T11:39:37.378Z,100313.56
2023-09-08T11:44:39.334Z,100306.88
2023-09-08T11:49:42.159Z,100307.00
2023-09-08T11:55:00.133Z,100311.19
2023-09-08T12:00:06.835Z,100297.63
2023-09-08T12:05:22.827Z,100321.53
2023-09-08T12:10:26.324Z,100305.16
2023-09-08T12:15:35.779Z,100304.44
2023-09-08T12:20:41.265Z,100295.75
2023-09-08T12:26:08.693Z,100292.38
2023-09-08T12:31:14.890Z,100288.63
2023-09-08T12:36:18.344Z,100289.59
2023-09-08T12:41:20.786Z,100291.66
2023-09-08T12:46:23.115Z,100282.97
2023-09-08T12:51:25.430Z,100277.09
2023-09-08T12:56:26.972Z,100275.44
2023-09-08T13:01:29.812Z,100273.78
2023-09-08T13:06:34.022Z,100271.06
2023-09-08T13:11:35.468Z,100265.31
2023-09-08T13:16:37.249Z,100264.63
2023-09-08T13:21:38.911Z,100255.88
2023-09-08T13:26:41.868Z,100255.94
2023-09-08T13:31:43.778Z,100256.50
2023-09-08T13:36:45.222Z,100242.22
2023-09-08T13:41:57.698Z,100230.75
2023-09-08T13:46:59.520Z,100234.09
2023-09-08T13:52:02.545Z,100228.09
2023-09-08T13:57:08.707Z,100230.59
2023-09-08T14:02:37.940Z,100228.13
2023-09-08T14:12:36.389Z,100211.53
2023-09-08T14:17:37.926Z,100210.03
2023-09-08T14:22:39.679Z,100209.44
2023-09-08T14:27:41.265Z,100200.75
2023-09-08T14:32:42.898Z,100209.47
2023-09-08T14:37:44.633Z,100202.84
2023-09-08T14:42:46.282Z,100207.66
2023-09-08T14:47:47.823Z,100205.91
2023-09-08T14:52:51.432Z,100202.22
2023-09-08T14:57:52.919Z,100178.03
2023-09-08T15:02:54.967Z,100193.34
2023-09-08T15:07:56.353Z,100193.81
2023-09-08T15:12:57.788Z,100194.00
2023-09-08T15:17:59.931Z,100193.34
2023-09-08T15:23:01.525Z,100193.25
2023-09-08T15:28:03.070Z,100183.47
2023-09-08T15:33:07.309Z,100188.94
2023-09-08T15:38:08.929Z,100165.66
2023-09-08T15:43:10.503Z,100183.53
2023-09-08T15:48:13.751Z,100195.00
2023-09-08T15:53:15.430Z,100197.91
2023-09-08T15:58:17.021Z,100192.63
2023-09-08T16:03:18.659Z,100191.16
2023-09-08T16:08:21.002Z,100180.84
2023-09-08T16:13:23.744Z,100187.66
2023-09-08T16:18:26.195Z,100185.94
2023-09-08T16:23:28.038Z,100183.53
2023-09-08T16:28:29.638Z,100181.53
2023-09-08T16:33:31.347Z,100177.06
2023-09-08T16:38:35.853Z,100187.38
2023-09-08T16:43:37.458Z,100179.59
2023-09-08T16:48:39.047Z,100181.91
2023-09-08T16:53:40.501Z,100174.34
2023-09-08T16:58:42.108Z,100189.16
2023-09-08T17:03:43.708Z,100185.69
2023-09-08T17:08:45.333Z,100173.75
2023-09-08T17:13:46.722Z,100170.56
2023-09-08T17:18:48.303Z,100154.69
2023-09-08T17:23:50.019Z,100178.38
2023-09-08T17:28:51.922Z,100173.31
2023-09-08T17:33:53.969Z,100169.53
2023-09-08T17:38:55.892Z,100179.56
2023-09-08T17:43:58.381Z,100188.13
2023-09-08T17:48:59.770Z,100186.03
2023-09-08T17:54:01.160Z,100182.25
2023-09-08T17:59:02.631Z,100191.91
2023-09-08T18:04:04.354Z,100197.16
2023-09-08T18:09:05.991Z,100202.78
2023-09-08T18:14:07.716Z,100197.91
2023-09-08T18:19:09.363Z,100184.72
2023-09-08T18:24:10.816Z,100195.66
2023-09-08T18:29:12.607Z,100195.78
2023-09-08T18:34:14.287Z,100196.72
2023-09-08T18:39:16.372Z,100201.47
2023-09-08T18:44:17.862Z,100191.41
2023-09-08T18:49:22.980Z,100202.19
2023-09-08T18:54:29.342Z,100207.31
2023-09-08T18:59:30.936Z,100208.72
2023-09-08T19:04:32.823Z,100209.41
2023-09-08T19:09:34.543Z,100208.44
2023-09-08T19:14:36.076Z,100181.53
2023-09-08T19:19:37.538Z,100211.16
2023-09-08T19:24:42.859Z,100216.69
2023-09-08T19:29:49.044Z,100215.13
2023-09-08T19:34:51.291Z,100212.28
2023-09-08T19:39:52.816Z,100208.34
2023-09-08T19:44:54.282Z,100206.66
2023-09-08T19:49:56.087Z,100217.19
2023-09-08T19:54:57.643Z,100208.22
2023-09-08T19:59:59.022Z,100205.06
2023-09-08T20:05:00.491Z,100222.94
2023-09-08T20:10:02.174Z,100223.88
2023-09-08T20:15:03.831Z,100210.38
2023-09-08T20:20:06.121Z,100214.44
2023-09-08T20:25:08.449Z,100206.16
2023-09-08T20:30:10.467Z,100218.34
2023-09-08T20:35:12.032Z,100225.97
2023-09-08T20:40:13.479Z,100224.44
2023-09-08T20:45:14.935Z,100216.72
2023-09-08T20:50:16.741Z,100227.63
2023-09-08T20:55:18.166Z,100219.13
2023-09-08T21:00:19.897Z,100225.03
2023-09-08T21:05:21.479Z,100222.13
2023-09-08T21:10:22.973Z,100220.88
2023-09-08T21:15:24.588Z,100226.19
2023-09-08T21:20:26.181Z,100219.81
2023-09-08T21:25:27.650Z,100226.28
2023-09-08T21:30:29.257Z,100223.41
2023-09-08T21:35:32.099Z,100215.25
2023-09-08T21:40:33.499Z,100218.63
2023-09-08T21:45:34.890Z,100215.75
2023-09-08T21:50:36.323Z,100216.19
2023-09-08T21:55:37.669Z,100208.69
2023-09-08T22:00:39.102Z,100210.84
2023-09-08T22:05:44.133Z,100214.22
2023-09-08T22:10:45.593Z,100207.13
2023-09-08T22:15:47.065Z,100207.19
2023-09-08T22:20:55.095Z,100207.25
2023-09-08T22:25:56.741Z,100215.22
2023-09-08T22:30:58.255Z,100194.75
2023-09-08T22:35:59.877Z,100211.47
2023-09-08T22:41:02.150Z,100207.06
2023-09-08T22:46:04.283Z,100209.84
2023-09-08T22:51:05.693Z,100206.31
2023-09-08T22:56:08.246Z,100208.22
2023-09-08T23:01:10.021Z,100210.97
2023-09-08T23:06:13.558Z,100207.44
2023-09-08T23:11:15.348Z,100207.88
2023-09-08T23:16:17.048Z,100209.97
2023-09-08T23:21:18.530Z,100215.22
2023-09-08T23:26:20.077Z,100218.78
2023-09-08T23:31:22.356Z,100208.78
2023-09-08T23:36:25.233Z,100207.13
2023-09-08T23:41:26.875Z,100203.97
2023-09-08T23:46:28.673Z,100205.44
2023-09-08T23:51:30.402Z,100204.19
2023-09-08T23:56:34.017Z,100204.16
